sensor_id;sensor_type;location;lat;lon;timestamp;temperature;humidity
16477;DHT22;8349;50.928;6.376;2022-07-17T00:02:03;15.20;99.90
16477;DHT22;8349;50.928;6.376;2022-07-17T00:04:31;15.10;99.90
16477;DHT22;8349;50.928;6.376;2022-07-17T00:06:58;15.10;99.90
16477;DHT22;8349;50.928;6.376;2022-07-17T00:09:25;14.90;99.90
16477;DHT22;8349;50.928;6.376;2022-07-17T00:11:52;14.90;99.90
16477;DHT22;8349;50.928;6.376;2022-07-17T00:14:19;14.90;99.90
16477;DHT22;8349;50.928;6.376;2022-07-17T00:16:45;14.80;99.90
16477;DHT22;8349;50.928;6.376;2022-07-17T00:19:12;14.80;99.90
16477;DHT22;8349;50.928;6.376;2022-07-17T00:21:40;14.70;99.90
16477;DHT22;8349;50.928;6.376;2022-07-17T00:26:35;14.60;99.90
16477;DHT22;8349;50.928;6.376;2022-07-17T00:29:02;14.50;99.90
16477;DHT22;8349;50.928;6.376;2022-07-17T00:31:29;14.40;99.90
16477;DHT22;8349;50.928;6.376;2022-07-17T00:33:56;14.30;99.90
16477;DHT22;8349;50.928;6.376;2022-07-17T00:36:23;14.40;99.90
16477;DHT22;8349;50.928;6.376;2022-07-17T00:38:51;14.40;99.90
16477;DHT22;8349;50.928;6.376;2022-07-17T00:41:17;14.20;99.90
16477;DHT22;8349;50.928;6.376;2022-07-17T00:43:44;14.10;99.90
16477;DHT22;8349;50.928;6.376;2022-07-17T00:46:11;14.20;99.90
16477;DHT22;8349;50.928;6.376;2022-07-17T00:48:38;14.20;99.90
16477;DHT22;8349;50.928;6.376;2022-07-17T00:51:05;14.20;99.90
16477;DHT22;8349;50.928;6.376;2022-07-17T00:53:32;14.30;99.90
16477;DHT22;8349;50.928;6.376;2022-07-17T00:56:02;14.30;99.90
16477;DHT22;8349;50.928;6.376;2022-07-17T00:58:30;14.40;99.90
16477;DHT22;8349;50.928;6.376;2022-07-17T01:00:56;14.50;99.90
16477;DHT22;8349;50.928;6.376;2022-07-17T01:03:24;14.40;99.90
16477;DHT22;8349;50.928;6.376;2022-07-17T01:05:51;14.30;99.90
16477;DHT22;8349;50.928;6.376;2022-07-17T01:08:18;14.20;99.90
16477;DHT22;8349;50.928;6.376;2022-07-17T01:10:46;14.20;99.90
16477;DHT22;8349;50.928;6.376;2022-07-17T01:13:15;14.20;99.90
16477;DHT22;8349;50.928;6.376;2022-07-17T01:15:41;14.10;99.90
16477;DHT22;8349;50.928;6.376;2022-07-17T01:18:09;14.10;99.90
16477;DHT22;8349;50.928;6.376;2022-07-17T01:20:37;14.10;99.90
16477;DHT22;8349;50.928;6.376;2022-07-17T01:23:05;14.10;99.90
16477;DHT22;8349;50.928;6.376;2022-07-17T01:25:33;14.00;99.90
16477;DHT22;8349;50.928;6.376;2022-07-17T01:28:00;14.00;99.90
16477;DHT22;8349;50.928;6.376;2022-07-17T01:30:26;14.00;99.90
16477;DHT22;8349;50.928;6.376;2022-07-17T01:32:53;14.00;99.90
16477;DHT22;8349;50.928;6.376;2022-07-17T01:35:20;14.00;99.90
16477;DHT22;8349;50.928;6.376;2022-07-17T01:37:47;14.00;99.90
16477;DHT22;8349;50.928;6.376;2022-07-17T01:40:16;14.00;99.90
16477;DHT22;8349;50.928;6.376;2022-07-17T01:42:44;14.00;99.90
16477;DHT22;8349;50.928;6.376;2022-07-17T01:45:11;14.00;99.90
16477;DHT22;8349;50.928;6.376;2022-07-17T01:47:39;14.00;99.90
16477;DHT22;8349;50.928;6.376;2022-07-17T01:50:06;14.00;99.90
16477;DHT22;8349;50.928;6.376;2022-07-17T01:52:34;13.80;99.90
16477;DHT22;8349;50.928;6.376;2022-07-17T01:55:01;13.80;99.90
16477;DHT22;8349;50.928;6.376;2022-07-17T01:57:30;13.80;99.90
16477;DHT22;8349;50.928;6.376;2022-07-17T01:59:57;13.70;99.90
16477;DHT22;8349;50.928;6.376;2022-07-17T02:02:23;13.70;99.90
16477;DHT22;8349;50.928;6.376;2022-07-17T02:04:51;13.70;99.90
16477;DHT22;8349;50.928;6.376;2022-07-17T02:07:18;13.60;99.90
16477;DHT22;8349;50.928;6.376;2022-07-17T02:09:44;13.50;99.90
16477;DHT22;8349;50.928;6.376;2022-07-17T02:12:11;13.40;99.90
16477;DHT22;8349;50.928;6.376;2022-07-17T02:14:40;13.50;99.90
16477;DHT22;8349;50.928;6.376;2022-07-17T02:17:06;13.30;99.90
16477;DHT22;8349;50.928;6.376;2022-07-17T02:19:33;13.20;99.90
16477;DHT22;8349;50.928;6.376;2022-07-17T02:22:00;13.10;99.90
16477;DHT22;8349;50.928;6.376;2022-07-17T02:24:27;13.00;99.90
16477;DHT22;8349;50.928;6.376;2022-07-17T02:26:53;12.90;99.90
16477;DHT22;8349;50.928;6.376;2022-07-17T02:29:20;12.80;99.90
16477;DHT22;8349;50.928;6.376;2022-07-17T02:31:48;12.80;99.90
16477;DHT22;8349;50.928;6.376;2022-07-17T02:34:15;12.80;99.90
16477;DHT22;8349;50.928;6.376;2022-07-17T02:36:42;12.80;99.90
16477;DHT22;8349;50.928;6.376;2022-07-17T02:39:09;12.80;99.90
16477;DHT22;8349;50.928;6.376;2022-07-17T02:41:36;12.80;99.90
16477;DHT22;8349;50.928;6.376;2022-07-17T02:44:02;12.80;99.90
16477;DHT22;8349;50.928;6.376;2022-07-17T02:46:29;12.70;99.90
16477;DHT22;8349;50.928;6.376;2022-07-17T02:48:58;12.80;99.90
16477;DHT22;8349;50.928;6.376;2022-07-17T02:51:25;12.60;99.90
16477;DHT22;8349;50.928;6.376;2022-07-17T02:53:52;12.70;99.90
16477;DHT22;8349;50.928;6.376;2022-07-17T02:56:18;12.70;99.90
16477;DHT22;8349;50.928;6.376;2022-07-17T02:58:45;12.50;99.90
16477;DHT22;8349;50.928;6.376;2022-07-17T03:01:12;12.50;99.90
16477;DHT22;8349;50.928;6.376;2022-07-17T03:03:39;12.50;99.90
16477;DHT22;8349;50.928;6.376;2022-07-17T03:06:08;12.50;99.90
16477;DHT22;8349;50.928;6.376;2022-07-17T03:08:35;12.50;99.90
16477;DHT22;8349;50.928;6.376;2022-07-17T03:11:01;12.40;99.90
16477;DHT22;8349;50.928;6.376;2022-07-17T03:13:28;12.30;99.90
16477;DHT22;8349;50.928;6.376;2022-07-17T03:15:55;12.20;99.90
16477;DHT22;8349;50.928;6.376;2022-07-17T03:18:22;12.10;99.90
16477;DHT22;8349;50.928;6.376;2022-07-17T03:20:48;12.10;99.90
16477;DHT22;8349;50.928;6.376;2022-07-17T03:23:17;12.20;99.90
16477;DHT22;8349;50.928;6.376;2022-07-17T03:25:44;12.20;99.90
16477;DHT22;8349;50.928;6.376;2022-07-17T03:28:11;12.10;99.90
16477;DHT22;8349;50.928;6.376;2022-07-17T03:30:37;12.10;99.90
16477;DHT22;8349;50.928;6.376;2022-07-17T03:33:04;12.10;99.90
16477;DHT22;8349;50.928;6.376;2022-07-17T03:35:31;12.00;99.90
16477;DHT22;8349;50.928;6.376;2022-07-17T03:37:58;12.10;99.90
16477;DHT22;8349;50.928;6.376;2022-07-17T03:40:26;11.90;99.90
16477;DHT22;8349;50.928;6.376;2022-07-17T03:42:53;11.90;99.90
16477;DHT22;8349;50.928;6.376;2022-07-17T03:45:20;11.90;99.90
16477;DHT22;8349;50.928;6.376;2022-07-17T03:47:46;12.00;99.90
16477;DHT22;8349;50.928;6.376;2022-07-17T03:50:13;12.00;99.90
16477;DHT22;8349;50.928;6.376;2022-07-17T03:52:40;12.00;99.90
16477;DHT22;8349;50.928;6.376;2022-07-17T03:55:07;12.00;99.90
16477;DHT22;8349;50.928;6.376;2022-07-17T03:57:36;12.00;99.90
16477;DHT22;8349;50.928;6.376;2022-07-17T04:00:03;12.00;99.90
16477;DHT22;8349;50.928;6.376;2022-07-17T04:02:37;12.00;99.90
16477;DHT22;8349;50.928;6.376;2022-07-17T04:05:04;12.00;99.90
16477;DHT22;8349;50.928;6.376;2022-07-17T04:07:34;12.00;99.90
16477;DHT22;8349;50.928;6.376;2022-07-17T04:10:01;11.90;99.90
16477;DHT22;8349;50.928;6.376;2022-07-17T04:12:30;11.90;99.90
16477;DHT22;8349;50.928;6.376;2022-07-17T04:14:58;11.90;99.90
16477;DHT22;8349;50.928;6.376;2022-07-17T04:17:25;11.80;99.90
16477;DHT22;8349;50.928;6.376;2022-07-17T04:19:52;11.80;99.90
16477;DHT22;8349;50.928;6.376;2022-07-17T04:22:19;12.00;99.90
16477;DHT22;8349;50.928;6.376;2022-07-17T04:24:46;12.00;99.90
16477;DHT22;8349;50.928;6.376;2022-07-17T04:27:13;12.00;99.90
16477;DHT22;8349;50.928;6.376;2022-07-17T04:29:39;12.00;99.90
16477;DHT22;8349;50.928;6.376;2022-07-17T04:32:08;12.00;99.90
16477;DHT22;8349;50.928;6.376;2022-07-17T04:34:34;12.00;99.90
16477;DHT22;8349;50.928;6.376;2022-07-17T04:37:02;12.10;99.90
16477;DHT22;8349;50.928;6.376;2022-07-17T04:39:29;12.10;99.90
16477;DHT22;8349;50.928;6.376;2022-07-17T04:41:56;12.00;99.90
16477;DHT22;8349;50.928;6.376;2022-07-17T04:44:23;12.00;99.90
16477;DHT22;8349;50.928;6.376;2022-07-17T04:46:50;12.00;99.90
16477;DHT22;8349;50.928;6.376;2022-07-17T04:49:18;12.20;99.90
16477;DHT22;8349;50.928;6.376;2022-07-17T04:51:45;12.30;99.90
16477;DHT22;8349;50.928;6.376;2022-07-17T04:54:12;12.40;99.90
16477;DHT22;8349;50.928;6.376;2022-07-17T04:56:38;12.50;99.90
16477;DHT22;8349;50.928;6.376;2022-07-17T04:59:05;12.60;99.90
16477;DHT22;8349;50.928;6.376;2022-07-17T05:01:32;12.70;99.90
16477;DHT22;8349;50.928;6.376;2022-07-17T05:03:59;12.70;99.90
16477;DHT22;8349;50.928;6.376;2022-07-17T05:06:28;12.80;99.90
16477;DHT22;8349;50.928;6.376;2022-07-17T05:08:55;12.80;99.90
16477;DHT22;8349;50.928;6.376;2022-07-17T05:11:22;12.90;99.90
16477;DHT22;8349;50.928;6.376;2022-07-17T05:13:48;12.90;99.90
16477;DHT22;8349;50.928;6.376;2022-07-17T05:16:15;12.90;99.90
16477;DHT22;8349;50.928;6.376;2022-07-17T05:18:42;13.00;99.90
16477;DHT22;8349;50.928;6.376;2022-07-17T05:21:09;13.20;99.90
16477;DHT22;8349;50.928;6.376;2022-07-17T05:23:37;13.40;99.90
16477;DHT22;8349;50.928;6.376;2022-07-17T05:26:04;13.50;99.90
16477;DHT22;8349;50.928;6.376;2022-07-17T05:28:31;13.50;99.90
16477;DHT22;8349;50.928;6.376;2022-07-17T05:30:58;13.60;99.90
16477;DHT22;8349;50.928;6.376;2022-07-17T05:33:24;13.60;99.90
16477;DHT22;8349;50.928;6.376;2022-07-17T05:35:51;13.70;99.90
16477;DHT22;8349;50.928;6.376;2022-07-17T05:38:18;13.70;99.90
16477;DHT22;8349;50.928;6.376;2022-07-17T05:40:46;13.60;99.90
16477;DHT22;8349;50.928;6.376;2022-07-17T05:43:13;13.70;99.90
16477;DHT22;8349;50.928;6.376;2022-07-17T05:45:40;13.90;99.90
16477;DHT22;8349;50.928;6.376;2022-07-17T05:48:07;14.00;99.90
16477;DHT22;8349;50.928;6.376;2022-07-17T05:50:34;14.10;99.90
16477;DHT22;8349;50.928;6.376;2022-07-17T05:53:01;14.30;99.90
16477;DHT22;8349;50.928;6.376;2022-07-17T05:55:28;14.30;99.90
16477;DHT22;8349;50.928;6.376;2022-07-17T05:57:56;14.40;99.90
16477;DHT22;8349;50.928;6.376;2022-07-17T06:00:23;14.40;99.90
16477;DHT22;8349;50.928;6.376;2022-07-17T06:02:49;14.50;99.90
16477;DHT22;8349;50.928;6.376;2022-07-17T06:05:16;14.60;99.90
16477;DHT22;8349;50.928;6.376;2022-07-17T06:07:43;14.80;99.90
16477;DHT22;8349;50.928;6.376;2022-07-17T06:10:10;14.80;99.90
16477;DHT22;8349;50.928;6.376;2022-07-17T06:12:36;15.00;99.90
16477;DHT22;8349;50.928;6.376;2022-07-17T06:15:05;15.10;99.90
16477;DHT22;8349;50.928;6.376;2022-07-17T06:17:32;15.30;99.90
16477;DHT22;8349;50.928;6.376;2022-07-17T06:19:59;15.40;99.90
16477;DHT22;8349;50.928;6.376;2022-07-17T06:22:25;15.40;99.90
16477;DHT22;8349;50.928;6.376;2022-07-17T06:24:52;15.40;99.90
16477;DHT22;8349;50.928;6.376;2022-07-17T06:27:19;15.50;99.90
16477;DHT22;8349;50.928;6.376;2022-07-17T06:29:46;15.70;99.90
16477;DHT22;8349;50.928;6.376;2022-07-17T06:32:14;16.00;99.90
16477;DHT22;8349;50.928;6.376;2022-07-17T06:34:41;16.00;99.90
16477;DHT22;8349;50.928;6.376;2022-07-17T06:37:08;16.10;99.90
16477;DHT22;8349;50.928;6.376;2022-07-17T06:39:35;16.20;99.90
16477;DHT22;8349;50.928;6.376;2022-07-17T06:42:02;16.20;99.90
16477;DHT22;8349;50.928;6.376;2022-07-17T06:44:28;16.30;99.90
16477;DHT22;8349;50.928;6.376;2022-07-17T06:46:55;16.30;99.90
16477;DHT22;8349;50.928;6.376;2022-07-17T06:49:24;16.40;99.90
16477;DHT22;8349;50.928;6.376;2022-07-17T06:51:50;16.50;99.90
16477;DHT22;8349;50.928;6.376;2022-07-17T06:54:17;16.60;99.90
16477;DHT22;8349;50.928;6.376;2022-07-17T06:56:44;16.60;99.90
16477;DHT22;8349;50.928;6.376;2022-07-17T06:59:11;16.80;99.90
16477;DHT22;8349;50.928;6.376;2022-07-17T07:01:38;16.90;99.90
16477;DHT22;8349;50.928;6.376;2022-07-17T07:04:05;17.00;99.90
16477;DHT22;8349;50.928;6.376;2022-07-17T07:06:33;17.10;99.90
16477;DHT22;8349;50.928;6.376;2022-07-17T07:09:00;17.20;99.90
16477;DHT22;8349;50.928;6.376;2022-07-17T07:11:26;17.40;99.90
16477;DHT22;8349;50.928;6.376;2022-07-17T07:13:53;17.50;99.90
16477;DHT22;8349;50.928;6.376;2022-07-17T07:16:20;17.60;99.90
16477;DHT22;8349;50.928;6.376;2022-07-17T07:18:47;17.80;99.90
16477;DHT22;8349;50.928;6.376;2022-07-17T07:21:14;17.90;99.90
16477;DHT22;8349;50.928;6.376;2022-07-17T07:23:42;18.00;99.90
16477;DHT22;8349;50.928;6.376;2022-07-17T07:26:09;18.10;99.90
16477;DHT22;8349;50.928;6.376;2022-07-17T07:28:36;18.10;99.90
16477;DHT22;8349;50.928;6.376;2022-07-17T07:31:03;18.20;99.90
16477;DHT22;8349;50.928;6.376;2022-07-17T07:33:30;18.40;99.90
16477;DHT22;8349;50.928;6.376;2022-07-17T07:35:57;18.50;99.90
16477;DHT22;8349;50.928;6.376;2022-07-17T07:38:23;18.60;99.90
16477;DHT22;8349;50.928;6.376;2022-07-17T07:40:52;18.80;99.90
16477;DHT22;8349;50.928;6.376;2022-07-17T07:43:18;18.80;99.90
16477;DHT22;8349;50.928;6.376;2022-07-17T07:45:45;18.90;99.90
16477;DHT22;8349;50.928;6.376;2022-07-17T07:48:12;18.90;99.90
16477;DHT22;8349;50.928;6.376;2022-07-17T07:50:39;19.10;99.90
16477;DHT22;8349;50.928;6.376;2022-07-17T07:53:06;19.20;99.90
16477;DHT22;8349;50.928;6.376;2022-07-17T07:55:33;19.40;99.90
16477;DHT22;8349;50.928;6.376;2022-07-17T07:58:05;19.50;99.90
16477;DHT22;8349;50.928;6.376;2022-07-17T08:00:32;19.60;99.90
16477;DHT22;8349;50.928;6.376;2022-07-17T08:02:59;19.70;99.90
16477;DHT22;8349;50.928;6.376;2022-07-17T08:05:26;19.80;99.90
16477;DHT22;8349;50.928;6.376;2022-07-17T08:07:52;19.90;99.90
16477;DHT22;8349;50.928;6.376;2022-07-17T08:10:19;20.00;99.90
16477;DHT22;8349;50.928;6.376;2022-07-17T08:12:46;20.00;99.90
16477;DHT22;8349;50.928;6.376;2022-07-17T08:15:15;20.10;99.90
16477;DHT22;8349;50.928;6.376;2022-07-17T08:17:42;20.10;99.90
16477;DHT22;8349;50.928;6.376;2022-07-17T08:20:10;20.20;99.90
16477;DHT22;8349;50.928;6.376;2022-07-17T08:22:37;20.20;99.90
16477;DHT22;8349;50.928;6.376;2022-07-17T08:25:04;20.30;99.90
16477;DHT22;8349;50.928;6.376;2022-07-17T08:27:34;20.40;99.90
16477;DHT22;8349;50.928;6.376;2022-07-17T08:30:01;20.60;99.90
16477;DHT22;8349;50.928;6.376;2022-07-17T08:32:29;20.70;99.90
16477;DHT22;8349;50.928;6.376;2022-07-17T08:34:56;20.70;99.90
16477;DHT22;8349;50.928;6.376;2022-07-17T08:37:22;20.90;99.90
16477;DHT22;8349;50.928;6.376;2022-07-17T08:39:49;20.70;99.90
16477;DHT22;8349;50.928;6.376;2022-07-17T08:42:16;20.70;99.90
16477;DHT22;8349;50.928;6.376;2022-07-17T08:44:43;20.80;99.90
16477;DHT22;8349;50.928;6.376;2022-07-17T08:47:10;21.00;99.90
16477;DHT22;8349;50.928;6.376;2022-07-17T08:49:40;21.20;99.90
16477;DHT22;8349;50.928;6.376;2022-07-17T08:52:07;21.30;99.90
16477;DHT22;8349;50.928;6.376;2022-07-17T08:54:35;21.40;99.90
16477;DHT22;8349;50.928;6.376;2022-07-17T08:57:02;21.40;99.90
16477;DHT22;8349;50.928;6.376;2022-07-17T08:59:29;21.50;99.90
16477;DHT22;8349;50.928;6.376;2022-07-17T09:01:56;21.50;99.90
16477;DHT22;8349;50.928;6.376;2022-07-17T09:04:24;21.70;99.90
16477;DHT22;8349;50.928;6.376;2022-07-17T09:06:58;22.00;99.90
16477;DHT22;8349;50.928;6.376;2022-07-17T09:09:25;22.00;99.90
16477;DHT22;8349;50.928;6.376;2022-07-17T09:11:53;22.20;99.90
16477;DHT22;8349;50.928;6.376;2022-07-17T09:14:21;22.10;99.90
16477;DHT22;8349;50.928;6.376;2022-07-17T09:16:48;22.00;99.90
16477;DHT22;8349;50.928;6.376;2022-07-17T09:19:25;22.00;99.90
16477;DHT22;8349;50.928;6.376;2022-07-17T09:22:04;22.10;99.90
16477;DHT22;8349;50.928;6.376;2022-07-17T09:24:39;22.20;99.90
16477;DHT22;8349;50.928;6.376;2022-07-17T09:27:06;22.20;99.90
16477;DHT22;8349;50.928;6.376;2022-07-17T09:29:33;22.30;99.90
16477;DHT22;8349;50.928;6.376;2022-07-17T09:32:00;22.50;99.90
16477;DHT22;8349;50.928;6.376;2022-07-17T09:34:27;22.50;99.90
16477;DHT22;8349;50.928;6.376;2022-07-17T09:37:00;22.50;99.90
16477;DHT22;8349;50.928;6.376;2022-07-17T09:39:35;22.40;99.90
16477;DHT22;8349;50.928;6.376;2022-07-17T09:42:02;22.50;99.90
16477;DHT22;8349;50.928;6.376;2022-07-17T09:44:29;22.70;99.90
16477;DHT22;8349;50.928;6.376;2022-07-17T09:46:55;22.90;99.90
16477;DHT22;8349;50.928;6.376;2022-07-17T09:49:22;23.00;99.90
16477;DHT22;8349;50.928;6.376;2022-07-17T09:51:52;23.20;99.90
16477;DHT22;8349;50.928;6.376;2022-07-17T09:54:20;23.40;99.90
16477;DHT22;8349;50.928;6.376;2022-07-17T09:56:50;23.50;99.90
16477;DHT22;8349;50.928;6.376;2022-07-17T09:59:17;23.40;99.90
16477;DHT22;8349;50.928;6.376;2022-07-17T10:01:45;23.50;99.90
16477;DHT22;8349;50.928;6.376;2022-07-17T10:04:14;23.60;99.90
16477;DHT22;8349;50.928;6.376;2022-07-17T10:06:41;23.50;99.90
16477;DHT22;8349;50.928;6.376;2022-07-17T10:09:09;23.60;99.90
16477;DHT22;8349;50.928;6.376;2022-07-17T10:11:36;23.70;99.90
16477;DHT22;8349;50.928;6.376;2022-07-17T10:14:05;23.90;99.90
16477;DHT22;8349;50.928;6.376;2022-07-17T10:16:36;24.10;99.90
16477;DHT22;8349;50.928;6.376;2022-07-17T10:19:14;24.20;99.90
16477;DHT22;8349;50.928;6.376;2022-07-17T10:21:51;24.30;99.90
16477;DHT22;8349;50.928;6.376;2022-07-17T10:24:18;24.20;99.90
16477;DHT22;8349;50.928;6.376;2022-07-17T10:26:44;24.00;99.90
16477;DHT22;8349;50.928;6.376;2022-07-17T10:29:31;24.00;99.90
16477;DHT22;8349;50.928;6.376;2022-07-17T10:31:59;24.20;99.90
16477;DHT22;8349;50.928;6.376;2022-07-17T10:34:36;24.30;99.90
16477;DHT22;8349;50.928;6.376;2022-07-17T10:37:08;24.50;99.90
16477;DHT22;8349;50.928;6.376;2022-07-17T10:39:39;24.60;99.90
16477;DHT22;8349;50.928;6.376;2022-07-17T10:42:06;24.80;99.90
16477;DHT22;8349;50.928;6.376;2022-07-17T10:44:35;25.00;99.90
16477;DHT22;8349;50.928;6.376;2022-07-17T10:47:01;24.90;99.90
16477;DHT22;8349;50.928;6.376;2022-07-17T10:49:28;24.90;99.90
16477;DHT22;8349;50.928;6.376;2022-07-17T10:51:55;24.80;99.90
16477;DHT22;8349;50.928;6.376;2022-07-17T10:54:31;24.70;99.90
16477;DHT22;8349;50.928;6.376;2022-07-17T10:57:00;24.70;99.90
16477;DHT22;8349;50.928;6.376;2022-07-17T10:59:27;24.90;99.90
16477;DHT22;8349;50.928;6.376;2022-07-17T11:01:56;25.10;99.90
16477;DHT22;8349;50.928;6.376;2022-07-17T11:04:24;25.10;99.90
16477;DHT22;8349;50.928;6.376;2022-07-17T11:06:50;25.00;99.90
16477;DHT22;8349;50.928;6.376;2022-07-17T11:09:17;25.00;99.90
16477;DHT22;8349;50.928;6.376;2022-07-17T11:11:45;24.90;99.90
16477;DHT22;8349;50.928;6.376;2022-07-17T11:14:13;25.10;99.90
16477;DHT22;8349;50.928;6.376;2022-07-17T11:16:45;25.10;99.90
16477;DHT22;8349;50.928;6.376;2022-07-17T11:19:19;25.10;99.90
16477;DHT22;8349;50.928;6.376;2022-07-17T11:21:46;25.20;99.90
16477;DHT22;8349;50.928;6.376;2022-07-17T11:24:13;25.40;99.90
16477;DHT22;8349;50.928;6.376;2022-07-17T11:26:41;25.60;99.90
16477;DHT22;8349;50.928;6.376;2022-07-17T11:29:08;25.80;99.90
16477;DHT22;8349;50.928;6.376;2022-07-17T11:31:35;26.00;99.90
16477;DHT22;8349;50.928;6.376;2022-07-17T11:34:02;26.20;99.90
16477;DHT22;8349;50.928;6.376;2022-07-17T11:36:33;26.40;99.90
16477;DHT22;8349;50.928;6.376;2022-07-17T11:39:01;26.70;99.90
16477;DHT22;8349;50.928;6.376;2022-07-17T11:41:34;26.90;99.90
16477;DHT22;8349;50.928;6.376;2022-07-17T11:44:02;27.60;99.90
16477;DHT22;8349;50.928;6.376;2022-07-17T11:46:29;28.40;99.90
16477;DHT22;8349;50.928;6.376;2022-07-17T11:48:56;29.20;99.90
16477;DHT22;8349;50.928;6.376;2022-07-17T11:51:34;29.80;99.90
16477;DHT22;8349;50.928;6.376;2022-07-17T11:54:02;30.50;99.90
16477;DHT22;8349;50.928;6.376;2022-07-17T11:56:29;31.60;99.90
16477;DHT22;8349;50.928;6.376;2022-07-17T11:58:56;32.90;99.90
16477;DHT22;8349;50.928;6.376;2022-07-17T12:01:23;34.00;99.90
16477;DHT22;8349;50.928;6.376;2022-07-17T12:03:55;34.30;99.10
16477;DHT22;8349;50.928;6.376;2022-07-17T12:06:23;34.80;98.80
16477;DHT22;8349;50.928;6.376;2022-07-17T12:08:52;35.40;98.40
16477;DHT22;8349;50.928;6.376;2022-07-17T12:11:19;35.70;98.00
16477;DHT22;8349;50.928;6.376;2022-07-17T12:13:46;36.10;97.60
16477;DHT22;8349;50.928;6.376;2022-07-17T12:16:26;35.50;96.80
16477;DHT22;8349;50.928;6.376;2022-07-17T12:18:57;35.00;97.00
16477;DHT22;8349;50.928;6.376;2022-07-17T12:21:25;34.20;96.50
16477;DHT22;8349;50.928;6.376;2022-07-17T12:23:57;34.30;96.40
16477;DHT22;8349;50.928;6.376;2022-07-17T12:26:25;34.00;96.50
16477;DHT22;8349;50.928;6.376;2022-07-17T12:28:51;34.90;96.50
16477;DHT22;8349;50.928;6.376;2022-07-17T12:31:18;35.50;96.10
16477;DHT22;8349;50.928;6.376;2022-07-17T12:33:46;35.20;96.20
16477;DHT22;8349;50.928;6.376;2022-07-17T12:36:14;35.20;95.90
16477;DHT22;8349;50.928;6.376;2022-07-17T12:38:41;35.40;96.20
16477;DHT22;8349;50.928;6.376;2022-07-17T12:41:09;35.90;95.50
16477;DHT22;8349;50.928;6.376;2022-07-17T12:43:36;36.10;95.70
16477;DHT22;8349;50.928;6.376;2022-07-17T12:46:02;36.70;96.30
16477;DHT22;8349;50.928;6.376;2022-07-17T12:48:29;37.60;96.00
16477;DHT22;8349;50.928;6.376;2022-07-17T12:50:56;37.30;95.80
16477;DHT22;8349;50.928;6.376;2022-07-17T12:53:23;37.50;95.70
16477;DHT22;8349;50.928;6.376;2022-07-17T12:55:50;37.90;95.70
16477;DHT22;8349;50.928;6.376;2022-07-17T12:58:18;36.80;95.20
16477;DHT22;8349;50.928;6.376;2022-07-17T13:00:45;36.40;95.60
16477;DHT22;8349;50.928;6.376;2022-07-17T13:03:12;36.30;95.60
16477;DHT22;8349;50.928;6.376;2022-07-17T13:05:39;36.00;95.40
16477;DHT22;8349;50.928;6.376;2022-07-17T13:08:05;35.90;95.60
16477;DHT22;8349;50.928;6.376;2022-07-17T13:10:33;36.20;95.90
16477;DHT22;8349;50.928;6.376;2022-07-17T13:13:00;37.10;96.10
16477;DHT22;8349;50.928;6.376;2022-07-17T13:15:28;37.70;95.90
16477;DHT22;8349;50.928;6.376;2022-07-17T13:17:55;37.60;95.90
16477;DHT22;8349;50.928;6.376;2022-07-17T13:20:22;38.00;95.40
16477;DHT22;8349;50.928;6.376;2022-07-17T13:22:49;38.70;95.20
16477;DHT22;8349;50.928;6.376;2022-07-17T13:25:15;39.40;95.50
16477;DHT22;8349;50.928;6.376;2022-07-17T13:27:42;39.30;95.00
16477;DHT22;8349;50.928;6.376;2022-07-17T13:30:10;39.30;94.00
16477;DHT22;8349;50.928;6.376;2022-07-17T13:32:38;39.00;93.70
16477;DHT22;8349;50.928;6.376;2022-07-17T13:35:06;38.80;93.40
16477;DHT22;8349;50.928;6.376;2022-07-17T13:37:33;39.10;92.70
16477;DHT22;8349;50.928;6.376;2022-07-17T13:40:00;39.80;92.40
16477;DHT22;8349;50.928;6.376;2022-07-17T13:42:26;39.50;92.40
16477;DHT22;8349;50.928;6.376;2022-07-17T13:44:53;39.10;92.70
16477;DHT22;8349;50.928;6.376;2022-07-17T13:47:20;38.20;92.20
16477;DHT22;8349;50.928;6.376;2022-07-17T13:49:48;37.90;92.40
16477;DHT22;8349;50.928;6.376;2022-07-17T13:52:15;37.70;92.80
16477;DHT22;8349;50.928;6.376;2022-07-17T13:54:42;37.60;93.00
16477;DHT22;8349;50.928;6.376;2022-07-17T13:57:09;38.10;92.60
16477;DHT22;8349;50.928;6.376;2022-07-17T13:59:36;38.60;92.40
16477;DHT22;8349;50.928;6.376;2022-07-17T14:02:02;38.60;92.10
16477;DHT22;8349;50.928;6.376;2022-07-17T14:04:29;39.00;92.80
16477;DHT22;8349;50.928;6.376;2022-07-17T14:06:57;39.00;92.70
16477;DHT22;8349;50.928;6.376;2022-07-17T14:09:24;38.80;92.40
16477;DHT22;8349;50.928;6.376;2022-07-17T14:11:52;39.30;92.30
16477;DHT22;8349;50.928;6.376;2022-07-17T14:14:19;39.70;92.40
16477;DHT22;8349;50.928;6.376;2022-07-17T14:16:46;39.40;92.10
16477;DHT22;8349;50.928;6.376;2022-07-17T14:19:12;40.00;92.20
16477;DHT22;8349;50.928;6.376;2022-07-17T14:21:39;40.70;92.10
16477;DHT22;8349;50.928;6.376;2022-07-17T14:24:07;40.80;92.00
16477;DHT22;8349;50.928;6.376;2022-07-17T14:26:35;40.70;91.60
16477;DHT22;8349;50.928;6.376;2022-07-17T14:29:02;40.70;91.80
16477;DHT22;8349;50.928;6.376;2022-07-17T14:31:29;40.40;92.20
16477;DHT22;8349;50.928;6.376;2022-07-17T14:33:56;40.70;92.10
16477;DHT22;8349;50.928;6.376;2022-07-17T14:36:23;40.20;91.70
16477;DHT22;8349;50.928;6.376;2022-07-17T14:38:50;39.30;91.90
16477;DHT22;8349;50.928;6.376;2022-07-17T14:41:18;39.20;91.70
16477;DHT22;8349;50.928;6.376;2022-07-17T14:43:46;39.20;91.70
16477;DHT22;8349;50.928;6.376;2022-07-17T14:46:13;39.10;92.20
16477;DHT22;8349;50.928;6.376;2022-07-17T14:48:40;38.90;91.80
16477;DHT22;8349;50.928;6.376;2022-07-17T14:51:07;38.20;92.00
16477;DHT22;8349;50.928;6.376;2022-07-17T14:53:33;37.70;92.00
16477;DHT22;8349;50.928;6.376;2022-07-17T14:56:00;37.40;92.00
16477;DHT22;8349;50.928;6.376;2022-07-17T14:58:28;37.20;91.90
16477;DHT22;8349;50.928;6.376;2022-07-17T15:00:55;37.70;91.80
16477;DHT22;8349;50.928;6.376;2022-07-17T15:03:22;37.90;91.80
16477;DHT22;8349;50.928;6.376;2022-07-17T15:05:49;37.80;91.60
16477;DHT22;8349;50.928;6.376;2022-07-17T15:08:16;37.80;91.70
16477;DHT22;8349;50.928;6.376;2022-07-17T15:10:43;37.50;91.70
16477;DHT22;8349;50.928;6.376;2022-07-17T15:13:09;37.80;91.50
16477;DHT22;8349;50.928;6.376;2022-07-17T15:15:38;38.20;91.50
16477;DHT22;8349;50.928;6.376;2022-07-17T15:18:04;37.50;91.70
16477;DHT22;8349;50.928;6.376;2022-07-17T15:20:31;37.90;91.60
16477;DHT22;8349;50.928;6.376;2022-07-17T15:22:58;37.30;91.10
16477;DHT22;8349;50.928;6.376;2022-07-17T15:25:25;36.20;91.50
16477;DHT22;8349;50.928;6.376;2022-07-17T15:27:51;36.20;91.80
16477;DHT22;8349;50.928;6.376;2022-07-17T15:30:18;36.60;91.20
16477;DHT22;8349;50.928;6.376;2022-07-17T15:32:46;36.20;91.80
16477;DHT22;8349;50.928;6.376;2022-07-17T15:35:13;35.40;91.60
16477;DHT22;8349;50.928;6.376;2022-07-17T15:37:40;35.30;92.00
16477;DHT22;8349;50.928;6.376;2022-07-17T15:40:07;35.60;92.30
16477;DHT22;8349;50.928;6.376;2022-07-17T15:42:34;35.90;91.70
16477;DHT22;8349;50.928;6.376;2022-07-17T15:45:01;36.50;91.90
16477;DHT22;8349;50.928;6.376;2022-07-17T15:47:28;37.10;91.80
16477;DHT22;8349;50.928;6.376;2022-07-17T15:49:56;37.20;91.20